sensor_id;sensor_type;location;lat;lon;timestamp;pressure;altitude;pressure_sealevel;temperature;humidity
69784;BME280;57054;51.978;4.498;2023-01-15T00:00:01;99806.69;;;6.82;83.86
69784;BME280;57054;51.978;4.498;2023-01-15T00:02:26;99828.44;;;6.81;83.53
69784;BME280;57054;51.978;4.498;2023-01-15T00:04:52;99821.47;;;6.81;84.29
69784;BME280;57054;51.978;4.498;2023-01-15T00:07:17;99821.47;;;6.81;84.24
69784;BME280;57054;51.978;4.498;2023-01-15T00:09:42;99831.88;;;6.81;84.40
69784;BME280;57054;51.978;4.498;2023-01-15T00:12:07;99829.31;;;6.80;83.53
69784;BME280;57054;51.978;4.498;2023-01-15T00:14:33;99820.69;;;6.79;83.04
69784;BME280;57054;51.978;4.498;2023-01-15T00:16:58;99821.53;;;6.80;84.11
69784;BME280;57054;51.978;4.498;2023-01-15T00:19:23;99803.31;;;6.80;84.66
69784;BME280;57054;51.978;4.498;2023-01-15T00:21:49;99818.84;;;6.81;83.96
69784;BME280;57054;51.978;4.498;2023-01-15T00:24:14;99807.66;;;6.79;83.46
69784;BME280;57054;51.978;4.498;2023-01-15T00:26:58;99824.97;;;6.80;83.24
69784;BME280;57054;51.978;4.498;2023-01-15T00:29:42;99816.31;;;6.80;82.52
69784;BME280;57054;51.978;4.498;2023-01-15T00:32:07;99815.47;;;6.79;82.91
69784;BME280;57054;51.978;4.498;2023-01-15T00:34:32;99808.56;;;6.78;82.03
69784;BME280;57054;51.978;4.498;2023-01-15T00:36:59;99813.84;;;6.77;81.16
69784;BME280;57054;51.978;4.498;2023-01-15T00:39:24;99801.75;;;6.76;81.54
69784;BME280;57054;51.978;4.498;2023-01-15T00:41:50;99806.94;;;6.76;82.14
69784;BME280;57054;51.978;4.498;2023-01-15T00:44:16;99815.66;;;6.75;81.55
69784;BME280;57054;51.978;4.498;2023-01-15T00:46:41;99816.56;;;6.73;81.92
69784;BME280;57054;51.978;4.498;2023-01-15T00:49:07;99807.06;;;6.72;81.44
69784;BME280;57054;51.978;4.498;2023-01-15T00:51:32;99811.44;;;6.72;81.22
69784;BME280;57054;51.978;4.498;2023-01-15T00:53:58;99814.09;;;6.70;80.57
69784;BME280;57054;51.978;4.498;2023-01-15T00:56:24;99802.84;;;6.70;80.04
69784;BME280;57054;51.978;4.498;2023-01-15T00:58:49;99808.88;;;6.70;81.29
69784;BME280;57054;51.978;4.498;2023-01-15T01:01:14;99795.09;;;6.68;80.73
69784;BME280;57054;51.978;4.498;2023-01-15T01:03:40;99808.16;;;6.67;80.78
69784;BME280;57054;51.978;4.498;2023-01-15T01:06:05;99814.28;;;6.66;80.13
69784;BME280;57054;51.978;4.498;2023-01-15T01:08:30;99813.44;;;6.65;79.97
69784;BME280;57054;51.978;4.498;2023-01-15T01:11:02;99822.16;;;6.64;80.19
69784;BME280;57054;51.978;4.498;2023-01-15T01:13:28;99814.34;;;6.64;80.54
69784;BME280;57054;51.978;4.498;2023-01-15T01:15:53;99813.56;;;6.62;80.19
69784;BME280;57054;51.978;4.498;2023-01-15T01:18:19;99814.47;;;6.61;81.00
69784;BME280;57054;51.978;4.498;2023-01-15T01:20:44;99815.31;;;6.62;82.01
69784;BME280;57054;51.978;4.498;2023-01-15T01:23:09;99821.38;;;6.62;83.07
69784;BME280;57054;51.978;4.498;2023-01-15T01:25:34;99816.28;;;6.59;81.09
69784;BME280;57054;51.978;4.498;2023-01-15T01:28:00;99821.50;;;6.59;80.59
69784;BME280;57054;51.978;4.498;2023-01-15T01:30:25;99821.50;;;6.59;80.20
69784;BME280;57054;51.978;4.498;2023-01-15T01:32:50;99820.66;;;6.59;80.61
69784;BME280;57054;51.978;4.498;2023-01-15T01:35:16;99831.13;;;6.57;81.22
69784;BME280;57054;51.978;4.498;2023-01-15T01:37:41;99818.13;;;6.57;81.13
69784;BME280;57054;51.978;4.498;2023-01-15T01:40:06;99819.00;;;6.56;81.06
69784;BME280;57054;51.978;4.498;2023-01-15T01:42:32;99819.94;;;6.55;81.22
69784;BME280;57054;51.978;4.498;2023-01-15T01:44:59;99820.78;;;6.56;80.72
69784;BME280;57054;51.978;4.498;2023-01-15T01:47:25;99822.53;;;6.55;80.99
69784;BME280;57054;51.978;4.498;2023-01-15T01:49:52;99825.13;;;6.55;81.00
69784;BME280;57054;51.978;4.498;2023-01-15T01:52:22;99832.13;;;6.53;81.06
69784;BME280;57054;51.978;4.498;2023-01-15T01:54:49;99826.03;;;6.54;80.39
69784;BME280;57054;51.978;4.498;2023-01-15T01:57:15;99841.69;;;6.52;78.94
69784;BME280;57054;51.978;4.498;2023-01-15T01:59:41;99844.28;;;6.52;78.99
69784;BME280;57054;51.978;4.498;2023-01-15T02:04:54;99839.25;;;6.49;78.32
69784;BME280;57054;51.978;4.498;2023-01-15T02:07:19;99828.88;;;6.48;78.19
69784;BME280;57054;51.978;4.498;2023-01-15T02:09:45;99833.16;;;6.49;78.96
69784;BME280;57054;51.978;4.498;2023-01-15T02:12:16;99827.19;;;6.47;79.45
69784;BME280;57054;51.978;4.498;2023-01-15T02:14:48;99831.56;;;6.46;80.10
69784;BME280;57054;51.978;4.498;2023-01-15T02:17:15;99824.63;;;6.45;80.68
69784;BME280;57054;51.978;4.498;2023-01-15T02:19:48;99825.50;;;6.46;80.94
69784;BME280;57054;51.978;4.498;2023-01-15T02:22:22;99824.69;;;6.44;79.86
69784;BME280;57054;51.978;4.498;2023-01-15T02:27:33;99827.28;;;6.44;80.29
69784;BME280;57054;51.978;4.498;2023-01-15T02:32:34;99821.31;;;6.42;79.65
69784;BME280;57054;51.978;4.498;2023-01-15T02:35:04;99825.56;;;6.44;81.44
69784;BME280;57054;51.978;4.498;2023-01-15T02:37:31;99824.78;;;6.42;80.99
69784;BME280;57054;51.978;4.498;2023-01-15T02:39:58;99830.81;;;6.43;80.92
69784;BME280;57054;51.978;4.498;2023-01-15T02:42:24;99829.13;;;6.42;80.00
69784;BME280;57054;51.978;4.498;2023-01-15T02:44:51;99822.22;;;6.41;80.05
69784;BME280;57054;51.978;4.498;2023-01-15T02:47:19;99822.22;;;6.41;80.23
69784;BME280;57054;51.978;4.498;2023-01-15T02:49:45;99832.63;;;6.41;79.97
69784;BME280;57054;51.978;4.498;2023-01-15T02:52:12;99827.44;;;6.41;81.59
69784;BME280;57054;51.978;4.498;2023-01-15T02:54:42;99822.34;;;6.38;79.72
69784;BME280;57054;51.978;4.498;2023-01-15T02:57:09;99813.66;;;6.39;80.62
69784;BME280;57054;51.978;4.498;2023-01-15T02:59:39;99822.34;;;6.38;80.49
69784;BME280;57054;51.978;4.498;2023-01-15T03:02:08;99814.59;;;6.36;80.44
69784;BME280;57054;51.978;4.498;2023-01-15T03:07:30;99836.34;;;6.35;79.96
69784;BME280;57054;51.978;4.498;2023-01-15T03:09:58;99813.81;;;6.34;81.17
69784;BME280;57054;51.978;4.498;2023-01-15T03:12:40;99811.28;;;6.32;82.42
69784;BME280;57054;51.978;4.498;2023-01-15T03:15:26;99814.84;;;6.30;82.66
69784;BME280;57054;51.978;4.498;2023-01-15T03:18:14;99821.00;;;6.27;82.99
69784;BME280;57054;51.978;4.498;2023-01-15T03:20:45;99795.94;;;6.26;82.83
69784;BME280;57054;51.978;4.498;2023-01-15T03:23:12;99809.81;;;6.25;81.95
69784;BME280;57054;51.978;4.498;2023-01-15T03:25:41;99812.41;;;6.25;81.53
69784;BME280;57054;51.978;4.498;2023-01-15T03:28:07;99793.31;;;6.26;82.06
69784;BME280;57054;51.978;4.498;2023-01-15T03:30:36;99806.31;;;6.26;82.49
69784;BME280;57054;51.978;4.498;2023-01-15T03:33:01;99809.75;;;6.27;81.74
69784;BME280;57054;51.978;4.498;2023-01-15T03:38:14;99801.13;;;6.26;82.73
69784;BME280;57054;51.978;4.498;2023-01-15T03:40:44;99802.03;;;6.25;81.95
69784;BME280;57054;51.978;4.498;2023-01-15T03:43:11;99796.81;;;6.25;82.74
69784;BME280;57054;51.978;4.498;2023-01-15T03:45:58;99792.50;;;6.26;82.49
69784;BME280;57054;51.978;4.498;2023-01-15T03:49:09;99788.13;;;6.26;83.17
69784;BME280;57054;51.978;4.498;2023-01-15T03:51:22;99787.28;;;6.26;82.76
69784;BME280;57054;51.978;4.498;2023-01-15T03:53:53;99782.94;;;6.26;83.27
69784;BME280;57054;51.978;4.498;2023-01-15T03:56:32;99793.38;;;6.25;82.84
69784;BME280;57054;51.978;4.498;2023-01-15T03:59:02;99784.75;;;6.24;82.83
69784;BME280;57054;51.978;4.498;2023-01-15T04:01:33;99784.75;;;6.24;82.18
69784;BME280;57054;51.978;4.498;2023-01-15T04:03:59;99777.84;;;6.23;82.51
69784;BME280;57054;51.978;4.498;2023-01-15T04:06:25;99789.16;;;6.22;82.19
69784;BME280;57054;51.978;4.498;2023-01-15T04:08:52;99790.91;;;6.22;82.31
69784;BME280;57054;51.978;4.498;2023-01-15T04:11:21;99797.81;;;6.23;82.61
69784;BME280;57054;51.978;4.498;2023-01-15T04:13:48;99809.97;;;6.22;83.06
69784;BME280;57054;51.978;4.498;2023-01-15T04:16:14;99795.25;;;6.21;82.47
69784;BME280;57054;51.978;4.498;2023-01-15T04:18:39;99800.47;;;6.21;82.80
69784;BME280;57054;51.978;4.498;2023-01-15T04:21:04;99791.88;;;6.19;81.50
69784;BME280;57054;51.978;4.498;2023-01-15T04:23:30;99795.31;;;6.20;81.77
69784;BME280;57054;51.978;4.498;2023-01-15T04:25:55;99802.28;;;6.19;82.05
69784;BME280;57054;51.978;4.498;2023-01-15T04:28:20;99811.84;;;6.19;81.69
69784;BME280;57054;51.978;4.498;2023-01-15T04:30:45;99804.03;;;6.19;81.56
69784;BME280;57054;51.978;4.498;2023-01-15T04:33:11;99791.03;;;6.19;81.27
69784;BME280;57054;51.978;4.498;2023-01-15T04:35:36;99793.63;;;6.19;81.36
69784;BME280;57054;51.978;4.498;2023-01-15T04:38:01;99794.47;;;6.19;82.40
69784;BME280;57054;51.978;4.498;2023-01-15T04:40:27;99791.09;;;6.17;81.54
69784;BME280;57054;51.978;4.498;2023-01-15T04:43:11;99793.69;;;6.17;82.04
69784;BME280;57054;51.978;4.498;2023-01-15T04:45:56;99783.28;;;6.17;82.15
69784;BME280;57054;51.978;4.498;2023-01-15T04:48:21;99804.97;;;6.16;81.49
69784;BME280;57054;51.978;4.498;2023-01-15T04:50:46;99790.31;;;6.15;81.05
69784;BME280;57054;51.978;4.498;2023-01-15T04:53:12;99792.91;;;6.15;80.24
69784;BME280;57054;51.978;4.498;2023-01-15T04:55:37;99792.91;;;6.15;79.32
69784;BME280;57054;51.978;4.498;2023-01-15T04:58:03;99790.31;;;6.15;78.83
69784;BME280;57054;51.978;4.498;2023-01-15T05:00:28;99792.97;;;6.13;76.67
69784;BME280;57054;51.978;4.498;2023-01-15T05:02:54;99791.25;;;6.12;76.52
69784;BME280;57054;51.978;4.498;2023-01-15T05:05:19;99800.81;;;6.12;78.57
69784;BME280;57054;51.978;4.498;2023-01-15T05:07:44;99798.28;;;6.10;78.64
69784;BME280;57054;51.978;4.498;2023-01-15T05:10:09;99804.44;;;6.08;77.54
69784;BME280;57054;51.978;4.498;2023-01-15T05:12:35;99807.16;;;6.05;75.11
69784;BME280;57054;51.978;4.498;2023-01-15T05:15:00;99800.25;;;6.04;74.27
69784;BME280;57054;51.978;4.498;2023-01-15T05:17:25;99784.81;;;6.01;75.31
69784;BME280;57054;51.978;4.498;2023-01-15T05:19:51;99810.78;;;6.01;75.13
69784;BME280;57054;51.978;4.498;2023-01-15T05:22:16;99789.13;;;6.00;73.77
69784;BME280;57054;51.978;4.498;2023-01-15T05:24:41;99790.09;;;5.98;73.69
69784;BME280;57054;51.978;4.498;2023-01-15T05:27:06;99779.72;;;5.98;75.72
69784;BME280;57054;51.978;4.498;2023-01-15T05:29:32;99788.44;;;5.95;75.52
69784;BME280;57054;51.978;4.498;2023-01-15T05:31:57;99778.94;;;5.94;76.96
69784;BME280;57054;51.978;4.498;2023-01-15T05:34:22;99785.03;;;5.93;78.58
69784;BME280;57054;51.978;4.498;2023-01-15T05:36:48;99781.66;;;5.91;79.19
69784;BME280;57054;51.978;4.498;2023-01-15T05:39:13;99786.06;;;5.89;78.08
69784;BME280;57054;51.978;4.498;2023-01-15T05:41:38;99774.94;;;5.85;76.38
69784;BME280;57054;51.978;4.498;2023-01-15T05:44:13;99787.09;;;5.85;74.58
69784;BME280;57054;51.978;4.498;2023-01-15T05:46:39;99780.19;;;5.84;75.82
69784;BME280;57054;51.978;4.498;2023-01-15T05:49:06;99807.16;;;5.81;73.23
69784;BME280;57054;51.978;4.498;2023-01-15T05:51:35;99782.94;;;5.81;74.94
69784;BME280;57054;51.978;4.498;2023-01-15T05:54:01;99784.75;;;5.79;74.91
69784;BME280;57054;51.978;4.498;2023-01-15T05:56:26;99786.47;;;5.78;75.65
69784;BME280;57054;51.978;4.498;2023-01-15T05:58:52;99790.94;;;5.74;73.92
69784;BME280;57054;51.978;4.498;2023-01-15T06:01:17;99784.94;;;5.72;74.53
69784;BME280;57054;51.978;4.498;2023-01-15T06:03:43;99791.91;;;5.72;74.87
69784;BME280;57054;51.978;4.498;2023-01-15T06:06:12;99801.50;;;5.70;75.08
69784;BME280;57054;51.978;4.498;2023-01-15T06:08:37;99791.19;;;5.68;73.95
69784;BME280;57054;51.978;4.498;2023-01-15T06:11:03;99798.13;;;5.68;74.71
69784;BME280;57054;51.978;4.498;2023-01-15T06:13:31;99797.34;;;5.66;73.45
69784;BME280;57054;51.978;4.498;2023-01-15T06:15:56;99787.00;;;5.64;72.66
69784;BME280;57054;51.978;4.498;2023-01-15T06:18:22;99798.28;;;5.63;72.52
69784;BME280;57054;51.978;4.498;2023-01-15T06:20:48;99807.78;;;5.64;73.27
69784;BME280;57054;51.978;4.498;2023-01-15T06:23:13;99799.13;;;5.64;73.46
69784;BME280;57054;51.978;4.498;2023-01-15T06:25:38;99800.00;;;5.64;74.78
69784;BME280;57054;51.978;4.498;2023-01-15T06:28:04;99807.84;;;5.63;73.73
69784;BME280;57054;51.978;4.498;2023-01-15T06:30:30;99817.31;;;5.64;74.00
69784;BME280;57054;51.978;4.498;2023-01-15T06:32:55;99820.81;;;5.63;73.74
69784;BME280;57054;51.978;4.498;2023-01-15T06:35:20;99803.47;;;5.63;73.80
69784;BME280;57054;51.978;4.498;2023-01-15T06:37:47;99820.81;;;5.63;74.13
69784;BME280;57054;51.978;4.498;2023-01-15T06:40:12;99821.72;;;5.62;74.10
69784;BME280;57054;51.978;4.498;2023-01-15T06:42:38;99816.56;;;5.60;73.71
69784;BME280;57054;51.978;4.498;2023-01-15T06:45:22;99802.75;;;5.60;73.02
69784;BME280;57054;51.978;4.498;2023-01-15T06:48:06;99801.06;;;5.58;73.18
69784;BME280;57054;51.978;4.498;2023-01-15T06:50:31;99801.97;;;5.57;72.98
69784;BME280;57054;51.978;4.498;2023-01-15T06:52:56;99787.22;;;5.58;73.61
69784;BME280;57054;51.978;4.498;2023-01-15T06:55:22;99799.41;;;5.56;74.44
69784;BME280;57054;51.978;4.498;2023-01-15T06:57:48;99802.97;;;5.53;74.37
69784;BME280;57054;51.978;4.498;2023-01-15T07:00:13;99790.88;;;5.52;75.35
69784;BME280;57054;51.978;4.498;2023-01-15T07:02:38;99783.09;;;5.52;76.15
69784;BME280;57054;51.978;4.498;2023-01-15T07:05:05;99792.66;;;5.52;76.83
69784;BME280;57054;51.978;4.498;2023-01-15T07:07:31;99796.13;;;5.51;75.35
69784;BME280;57054;51.978;4.498;2023-01-15T07:09:56;99790.94;;;5.51;74.94
69784;BME280;57054;51.978;4.498;2023-01-15T07:12:22;99793.53;;;5.51;75.93
69784;BME280;57054;51.978;4.498;2023-01-15T07:14:47;99777.94;;;5.51;77.39
69784;BME280;57054;51.978;4.498;2023-01-15T07:17:13;99776.22;;;5.51;76.91
69784;BME280;57054;51.978;4.498;2023-01-15T07:19:38;99785.69;;;5.52;77.46
69784;BME280;57054;51.978;4.498;2023-01-15T07:22:04;99783.09;;;5.52;76.19
69784;BME280;57054;51.978;4.498;2023-01-15T07:24:29;99796.91;;;5.53;76.97
69784;BME280;57054;51.978;4.498;2023-01-15T07:26:55;99791.81;;;5.51;76.00
69784;BME280;57054;51.978;4.498;2023-01-15T07:29:20;99790.00;;;5.53;75.54
69784;BME280;57054;51.978;4.498;2023-01-15T07:31:47;99796.91;;;5.53;75.44
69784;BME280;57054;51.978;4.498;2023-01-15T07:34:12;99783.03;;;5.54;75.50
69784;BME280;57054;51.978;4.498;2023-01-15T07:36:37;99780.44;;;5.54;76.35
69784;BME280;57054;51.978;4.498;2023-01-15T07:39:03;99780.44;;;5.54;76.83
69784;BME280;57054;51.978;4.498;2023-01-15T07:41:31;99786.47;;;5.54;78.17
69784;BME280;57054;51.978;4.498;2023-01-15T07:44:15;99775.25;;;5.54;78.64
69784;BME280;57054;51.978;4.498;2023-01-15T07:46:59;99783.00;;;5.55;79.49
69784;BME280;57054;51.978;4.498;2023-01-15T07:49:43;99794.22;;;5.56;78.88
69784;BME280;57054;51.978;4.498;2023-01-15T07:52:12;99786.44;;;5.56;78.09
69784;BME280;57054;51.978;4.498;2023-01-15T07:54:38;99785.53;;;5.57;77.64
69784;BME280;57054;51.978;4.498;2023-01-15T07:57:03;99775.97;;;5.57;78.68
69784;BME280;57054;51.978;4.498;2023-01-15T07:59:29;99774.22;;;5.58;78.81
69784;BME280;57054;51.978;4.498;2023-01-15T08:01:54;99776.78;;;5.60;77.65
69784;BME280;57054;51.978;4.498;2023-01-15T08:04:19;99785.41;;;5.60;77.96
69784;BME280;57054;51.978;4.498;2023-01-15T08:06:44;99788.88;;;5.61;77.19
69784;BME280;57054;51.978;4.498;2023-01-15T08:09:10;99771.53;;;5.61;77.63
69784;BME280;57054;51.978;4.498;2023-01-15T08:11:35;99790.50;;;5.63;76.51
69784;BME280;57054;51.978;4.498;2023-01-15T08:14:19;99805.19;;;5.64;77.42
69784;BME280;57054;51.978;4.498;2023-01-15T08:17:03;99794.75;;;5.66;76.97
69784;BME280;57054;51.978;4.498;2023-01-15T08:19:28;99804.16;;;5.68;76.22
69784;BME280;57054;51.978;4.498;2023-01-15T08:21:54;99782.41;;;5.71;77.84
69784;BME280;57054;51.978;4.498;2023-01-15T08:24:19;99802.31;;;5.72;78.00
69784;BME280;57054;51.978;4.498;2023-01-15T08:26:45;99799.66;;;5.73;77.87
69784;BME280;57054;51.978;4.498;2023-01-15T08:29:10;99775.34;;;5.74;77.39
69784;BME280;57054;51.978;4.498;2023-01-15T08:31:35;99797.84;;;5.75;77.53
69784;BME280;57054;51.978;4.498;2023-01-15T08:34:01;99795.19;;;5.77;77.24
69784;BME280;57054;51.978;4.498;2023-01-15T08:36:26;99786.47;;;5.78;77.37
69784;BME280;57054;51.978;4.498;2023-01-15T08:38:51;99789.06;;;5.78;77.49
69784;BME280;57054;51.978;4.498;2023-01-15T08:41:17;99789.84;;;5.80;78.41
69784;BME280;57054;51.978;4.498;2023-01-15T08:43:42;99779.47;;;5.80;78.67
69784;BME280;57054;51.978;4.498;2023-01-15T08:46:09;99798.47;;;5.82;78.14
69784;BME280;57054;51.978;4.498;2023-01-15T08:48:35;99784.56;;;5.83;78.52
69784;BME280;57054;51.978;4.498;2023-01-15T08:51:07;99795.78;;;5.84;78.63
69784;BME280;57054;51.978;4.498;2023-01-15T08:53:32;99782.75;;;5.85;78.62
69784;BME280;57054;51.978;4.498;2023-01-15T08:55:58;99796.59;;;5.86;78.01
69784;BME280;57054;51.978;4.498;2023-01-15T08:58:26;99790.47;;;5.87;78.83
69784;BME280;57054;51.978;4.498;2023-01-15T09:00:51;99782.69;;;5.87;78.53
69784;BME280;57054;51.978;4.498;2023-01-15T09:03:16;99800.81;;;5.88;78.59
69784;BME280;57054;51.978;4.498;2023-01-15T09:05:42;99793.81;;;5.90;78.00
69784;BME280;57054;51.978;4.498;2023-01-15T09:08:07;99790.31;;;5.91;79.69
69784;BME280;57054;51.978;4.498;2023-01-15T09:10:32;99792.91;;;5.91;78.13
69784;BME280;57054;51.978;4.498;2023-01-15T09:12:58;99779.84;;;5.93;78.09
69784;BME280;57054;51.978;4.498;2023-01-15T09:15:24;99779.78;;;5.94;78.89
69784;BME280;57054;51.978;4.498;2023-01-15T09:17:50;99779.78;;;5.94;80.00
69784;BME280;57054;51.978;4.498;2023-01-15T09:20:15;99789.34;;;5.94;79.36
69784;BME280;57054;51.978;4.498;2023-01-15T09:22:40;99785.91;;;5.93;80.25
69784;BME280;57054;51.978;4.498;2023-01-15T09:25:06;99797.13;;;5.95;78.70
69784;BME280;57054;51.978;4.498;2023-01-15T09:27:31;99807.47;;;5.97;77.80
69784;BME280;57054;51.978;4.498;2023-01-15T09:29:58;99796.19;;;5.96;77.40
69784;BME280;57054;51.978;4.498;2023-01-15T09:32:23;99804.81;;;5.99;77.89
69784;BME280;57054;51.978;4.498;2023-01-15T09:34:49;99788.28;;;6.00;77.52
69784;BME280;57054;51.978;4.498;2023-01-15T09:37:14;99783.03;;;6.01;77.89
69784;BME280;57054;51.978;4.498;2023-01-15T09:39:40;99782.16;;;6.02;79.14
69784;BME280;57054;51.978;4.498;2023-01-15T09:47:10;99793.28;;;6.06;78.53
69784;BME280;57054;51.978;4.498;2023-01-15T09:49:40;99779.28;;;6.08;78.64
69784;BME280;57054;51.978;4.498;2023-01-15T09:55:05;99792.09;;;6.13;77.96
69784;BME280;57054;51.978;4.498;2023-01-15T09:57:35;99793.69;;;6.17;77.78
69784;BME280;57054;51.978;4.498;2023-01-15T10:00:02;99788.28;;;6.22;80.23
69784;BME280;57054;51.978;4.498;2023-01-15T10:02:37;99809.03;;;6.23;79.41
69784;BME280;57054;51.978;4.498;2023-01-15T10:05:22;99814.97;;;6.27;78.10
69784;BME280;57054;51.978;4.498;2023-01-15T10:10:34;99798.88;;;6.39;77.25
69784;BME280;57054;51.978;4.498;2023-01-15T10:13:12;99823.84;;;6.43;77.36
69784;BME280;57054;51.978;4.498;2023-01-15T10:15:43;99836.81;;;6.45;76.15
69784;BME280;57054;51.978;4.498;2023-01-15T10:18:18;99809.81;;;6.47;77.81
69784;BME280;57054;51.978;4.498;2023-01-15T10:21:06;99829.72;;;6.48;75.99
69784;BME280;57054;51.978;4.498;2023-01-15T10:26:24;99814.97;;;6.49;78.38
69784;BME280;57054;51.978;4.498;2023-01-15T10:28:59;99828.03;;;6.47;77.73
69784;BME280;57054;51.978;4.498;2023-01-15T10:34:15;99835.81;;;6.47;77.11
69784;BME280;57054;51.978;4.498;2023-01-15T10:36:45;99857.50;;;6.48;77.23
69784;BME280;57054;51.978;4.498;2023-01-15T10:39:25;99818.44;;;6.49;75.89
69784;BME280;57054;51.978;4.498;2023-01-15T10:42:02;99817.44;;;6.52;76.54
69784;BME280;57054;51.978;4.498;2023-01-15T10:47:15;99828.63;;;6.54;76.39
69784;BME280;57054;51.978;4.498;2023-01-15T10:49:41;99826.03;;;6.54;77.48
69784;BME280;57054;51.978;4.498;2023-01-15T10:52:14;99855.53;;;6.53;77.26
69784;BME280;57054;51.978;4.498;2023-01-15T10:54:47;99840.75;;;6.55;76.05
69784;BME280;57054;51.978;4.498;2023-01-15T10:57:16;99821.59;;;6.56;74.53
69784;BME280;57054;51.978;4.498;2023-01-15T10:59:49;99851.88;;;6.59;75.01
69784;BME280;57054;51.978;4.498;2023-01-15T11:04:46;99822.28;;;6.61;75.63
69784;BME280;57054;51.978;4.498;2023-01-15T11:07:11;99848.19;;;6.64;75.55
69784;BME280;57054;51.978;4.498;2023-01-15T11:09:38;99843.81;;;6.65;76.56
69784;BME280;57054;51.978;4.498;2023-01-15T11:14:37;99841.22;;;6.65;79.25
69784;BME280;57054;51.978;4.498;2023-01-15T11:17:22;99832.63;;;6.63;79.75
69784;BME280;57054;51.978;4.498;2023-01-15T11:20:16;99828.31;;;6.62;81.00
69784;BME280;57054;51.978;4.498;2023-01-15T11:22:46;99837.88;;;6.61;82.05
69784;BME280;57054;51.978;4.498;2023-01-15T11:25:11;99822.28;;;6.61;82.18
69784;BME280;57054;51.978;4.498;2023-01-15T11:27:38;99823.16;;;6.60;82.48
69784;BME280;57054;51.978;4.498;2023-01-15T11:30:04;99824.09;;;6.59;82.98
69784;BME280;57054;51.978;4.498;2023-01-15T11:32:34;99824.09;;;6.59;83.51
69784;BME280;57054;51.978;4.498;2023-01-15T11:37:26;99811.16;;;6.58;82.74
69784;BME280;57054;51.978;4.498;2023-01-15T11:39:55;99807.72;;;6.57;84.54
69784;BME280;57054;51.978;4.498;2023-01-15T11:42:21;99806.94;;;6.55;83.00
69784;BME280;57054;51.978;4.498;2023-01-15T11:45:12;99813.03;;;6.54;83.54
69784;BME280;57054;51.978;4.498;2023-01-15T11:47:56;99819.06;;;6.54;83.94
69784;BME280;57054;51.978;4.498;2023-01-15T11:50:48;99830.41;;;6.53;84.27
69784;BME280;57054;51.978;4.498;2023-01-15T11:53:16;99820.78;;;6.56;84.94
69784;BME280;57054;51.978;4.498;2023-01-15T11:55:59;99833.00;;;6.53;85.10
69784;BME280;57054;51.978;4.498;2023-01-15T11:58:28;99826.09;;;6.52;85.50
69784;BME280;57054;51.978;4.498;2023-01-15T12:00:55;99819.13;;;6.53;86.38
69784;BME280;57054;51.978;4.498;2023-01-15T12:03:23;99829.53;;;6.53;85.31
69784;BME280;57054;51.978;4.498;2023-01-15T12:05:56;99811.31;;;6.53;83.64
69784;BME280;57054;51.978;4.498;2023-01-15T12:10:50;99841.63;;;6.54;82.85
69784;BME280;57054;51.978;4.498;2023-01-15T12:13:33;99816.47;;;6.54;82.09
69784;BME280;57054;51.978;4.498;2023-01-15T12:18:50;99812.13;;;6.55;84.77
69784;BME280;57054;51.978;4.498;2023-01-15T12:24:09;99815.69;;;6.52;86.01
69784;BME280;57054;51.978;4.498;2023-01-15T12:29:12;99833.00;;;6.53;81.10
69784;BME280;57054;51.978;4.498;2023-01-15T12:31:40;99852.00;;;6.56;79.71
69784;BME280;57054;51.978;4.498;2023-01-15T12:34:19;99859.75;;;6.57;79.02
69784;BME280;57054;51.978;4.498;2023-01-15T12:36:46;99839.75;;;6.58;79.20
69784;BME280;57054;51.978;4.498;2023-01-15T12:39:15;99832.75;;;6.60;77.38
69784;BME280;57054;51.978;4.498;2023-01-15T12:41:44;99832.69;;;6.61;78.13
69784;BME280;57054;51.978;4.498;2023-01-15T12:47:13;99830.88;;;6.63;79.02
69784;BME280;57054;51.978;4.498;2023-01-15T12:49:43;99832.50;;;6.66;78.32
69784;BME280;57054;51.978;4.498;2023-01-15T12:52:09;99848.84;;;6.69;78.96
69784;BME280;57054;51.978;4.498;2023-01-15T12:54:38;99828.72;;;6.73;77.49
69784;BME280;57054;51.978;4.498;2023-01-15T12:57:12;99836.28;;;6.79;77.51
69784;BME280;57054;51.978;4.498;2023-01-15T12:59:47;99834.41;;;6.83;77.38
69784;BME280;57054;51.978;4.498;2023-01-15T13:10:08;99811.59;;;6.89;76.50
69784;BME280;57054;51.978;4.498;2023-01-15T13:12:37;99854.13;;;6.88;76.92
69784;BME280;57054;51.978;4.498;2023-01-15T13:15:04;99867.97;;;6.89;77.10
69784;BME280;57054;51.978;4.498;2023-01-15T13:22:39;99841.13;;;6.88;78.16
69784;BME280;57054;51.978;4.498;2023-01-15T13:25:10;99836.75;;;6.89;76.50
69784;BME280;57054;51.978;4.498;2023-01-15T13:30:18;99834.94;;;6.91;77.84
69784;BME280;57054;51.978;4.498;2023-01-15T13:32:47;99847.94;;;6.91;78.12
69784;BME280;57054;51.978;4.498;2023-01-15T13:35:19;99860.91;;;6.92;76.65
69784;BME280;57054;51.978;4.498;2023-01-15T13:37:48;99854.00;;;6.91;77.01
69784;BME280;57054;51.978;4.498;2023-01-15T13:40:22;99838.47;;;6.90;77.61
69784;BME280;57054;51.978;4.498;2023-01-15T13:42:51;99837.63;;;6.89;78.69
69784;BME280;57054;51.978;4.498;2023-01-15T13:47:50;99852.25;;;6.92;77.57
69784;BME280;57054;51.978;4.498;2023-01-15T13:50:18;99864.28;;;6.95;77.55
69784;BME280;57054;51.978;4.498;2023-01-15T13:52:47;99872.03;;;6.96;77.00
69784;BME280;57054;51.978;4.498;2023-01-15T13:55:20;99856.28;;;6.99;76.41
69784;BME280;57054;51.978;4.498;2023-01-15T13:57:48;99855.38;;;7.00;77.22
69784;BME280;57054;51.978;4.498;2023-01-15T14:06:01;99883.94;;;7.02;77.24
69784;BME280;57054;51.978;4.498;2023-01-15T14:08:28;99870.09;;;7.01;77.06
69784;BME280;57054;51.978;4.498;2023-01-15T14:11:00;99877.06;;;7.01;77.76
69784;BME280;57054;51.978;4.498;2023-01-15T14:13:39;99889.22;;;7.00;76.83
69784;BME280;57054;51.978;4.498;2023-01-15T14:18:48;99862.41;;;6.98;77.27
69784;BME280;57054;51.978;4.498;2023-01-15T14:21:32;99881.53;;;6.97;75.94
69784;BME280;57054;51.978;4.498;2023-01-15T14:26:44;99877.25;;;6.96;75.85
69784;BME280;57054;51.978;4.498;2023-01-15T14:29:41;99890.25;;;6.96;77.45
69784;BME280;57054;51.978;4.498;2023-01-15T14:34:53;99890.56;;;6.88;79.39
69784;BME280;57054;51.978;4.498;2023-01-15T14:37:25;99892.44;;;6.85;79.65
69784;BME280;57054;51.978;4.498;2023-01-15T14:39:57;99881.16;;;6.86;79.51
69784;BME280;57054;51.978;4.498;2023-01-15T14:47:44;99899.47;;;6.83;77.12